Time;durP1;ratioP1;P1;durP2;ratioP2;P2;SDS_P1;SDS_P2;PMS_P1;PMS_P2;Temp;Humidity;BMP_temperature;BMP_pressure;BME280_temperature;BME280_humidity;BME280_pressure;Samples;Min_cycle;Max_cycle;Signal;HPM_P1;HPM_P2
2024/03/05 00:00:58;;;;;;;14.10;8.07;;;;;;;;;;4965419;28;20112;-77
2024/03/05 00:03:24;;;;;;;14.38;8.38;;;;;;;;;;4972601;28;20031;-80
2024/03/05 00:05:50;;;;;;;14.57;8.57;;;;;;;;;;4970910;28;20107;-78
2024/03/05 00:08:15;;;;;;;13.27;8.20;;;;;;;;;;4973523;28;20421;-79
2024/03/05 00:10:41;;;;;;;14.10;8.30;;;;;;;;;;4953606;28;20023;-79
2024/03/05 00:13:07;;;;;;;14.45;8.60;;;;;;;;;;4969446;28;20110;-78
2024/03/05 00:15:33;;;;;;;16.02;8.63;;;;;;;;;;4972499;28;20073;-79
2024/03/05 00:17:58;;;;;;;15.90;8.38;;;;;;;;;;4938302;28;20027;-76
2024/03/05 00:20:24;;;;;;;14.82;8.88;;;;;;;;;;4967303;28;20093;-76
2024/03/05 00:22:50;;;;;;;14.13;9.20;;;;;;;;;;4975239;28;20031;-76
2024/03/05 00:25:16;;;;;;;16.25;9.30;;;;;;;;;;4968153;28;20027;-76
2024/03/05 00:27:42;;;;;;;15.15;9.30;;;;;;;;;;4971046;28;20026;-77
2024/03/05 00:30:09;;;;;;;16.75;9.73;;;;;;;;;;4962885;28;20035;-76
2024/03/05 00:32:37;;;;;;;15.10;9.20;;;;;;;;;;4977914;28;20081;-75
2024/03/05 00:35:06;;;;;;;18.23;9.70;;;;;;;;;;4975099;28;20023;-76
2024/03/05 00:37:32;;;;;;;15.15;9.05;;;;;;;;;;4956751;28;20026;-76
2024/03/05 00:39:58;;;;;;;16.05;9.48;;;;;;;;;;4962715;28;20027;-76
2024/03/05 00:42:24;;;;;;;16.38;9.98;;;;;;;;;;4966479;28;20031;-76
2024/03/05 00:44:49;;;;;;;15.38;9.73;;;;;;;;;;4946232;28;20118;-76
2024/03/05 00:47:15;;;;;;;17.95;9.98;;;;;;;;;;4972072;28;20433;-75
2024/03/05 00:49:40;;;;;;;16.08;10.10;;;;;;;;;;4971298;28;20383;-76
2024/03/05 00:52:06;;;;;;;15.48;9.48;;;;;;;;;;4967972;28;20054;-76
2024/03/05 00:54:31;;;;;;;19.95;10.85;;;;;;;;;;4947011;28;20034;-76
2024/03/05 00:56:57;;;;;;;19.10;10.85;;;;;;;;;;4970995;28;20030;-76
2024/03/05 00:59:22;;;;;;;16.55;10.05;;;;;;;;;;4978613;28;20034;-76
2024/03/05 01:01:48;;;;;;;18.77;10.93;;;;;;;;;;4953902;28;20397;-76
2024/03/05 01:04:14;;;;;;;18.08;11.13;;;;;;;;;;4953604;28;20042;-76
2024/03/05 01:06:43;;;;;;;16.30;10.88;;;;;;;;;;4970505;28;20035;-76
2024/03/05 01:09:15;;;;;;;17.85;10.73;;;;;;;;;;4957500;28;20031;-76
2024/03/05 01:11:41;;;;;;;17.40;10.40;;;;;;;;;;4971384;28;20042;-76
2024/03/05 01:14:06;;;;;;;19.85;10.93;;;;;;;;;;4963759;28;20018;-75
2024/03/05 01:16:31;;;;;;;19.80;10.32;;;;;;;;;;4969662;28;20045;-75
2024/03/05 01:18:57;;;;;;;18.88;10.52;;;;;;;;;;4976111;28;20070;-75
2024/03/05 01:21:22;;;;;;;19.55;10.85;;;;;;;;;;4968238;28;20129;-75
2024/03/05 01:23:48;;;;;;;19.90;11.15;;;;;;;;;;4972776;28;20031;-75
2024/03/05 01:26:14;;;;;;;16.65;10.25;;;;;;;;;;4968677;28;20033;-75
2024/03/05 01:28:39;;;;;;;17.35;10.45;;;;;;;;;;4952602;28;20284;-75
2024/03/05 01:31:05;;;;;;;18.92;11.00;;;;;;;;;;4961883;28;20114;-76
2024/03/05 01:33:30;;;;;;;18.42;10.25;;;;;;;;;;4963588;28;20082;-75
2024/03/05 01:35:56;;;;;;;20.25;10.75;;;;;;;;;;4975520;28;20555;-75
2024/03/05 01:38:22;;;;;;;19.13;10.60;;;;;;;;;;4975031;28;20472;-76
2024/03/05 01:40:48;;;;;;;16.55;10.68;;;;;;;;;;4963144;28;20030;-75
2024/03/05 01:43:14;;;;;;;17.60;10.38;;;;;;;;;;4974742;28;20038;-75
2024/03/05 01:45:42;;;;;;;17.25;10.85;;;;;;;;;;4978563;28;20034;-76
2024/03/05 01:48:08;;;;;;;17.55;11.40;;;;;;;;;;4959357;28;20026;-75
2024/03/05 01:50:37;;;;;;;17.30;10.82;;;;;;;;;;4971162;28;20423;-76
2024/03/05 01:53:06;;;;;;;23.52;10.93;;;;;;;;;;4975875;28;20031;-75
2024/03/05 01:55:32;;;;;;;18.88;11.18;;;;;;;;;;4964011;28;20117;-76
2024/03/05 01:57:58;;;;;;;19.50;11.60;;;;;;;;;;4975460;28;20481;-75
2024/03/05 02:00:26;;;;;;;20.92;11.63;;;;;;;;;;4978370;28;20041;-75
2024/03/05 04:50:14;;;;;;;40.25;19.77;;;;;;;;;;515126;26;20309;-86
2024/03/05 04:52:44;;;;;;;36.83;18.48;;;;;;;;;;4924436;29;20047;-87
2024/03/05 04:59:30;;;;;;;36.13;18.20;;;;;;;;;;4843482;29;20123;-88
2024/03/05 11:59:01;;;;;;;18.73;11.70;;;;;;;;;;4987261;28;20449;-87
2024/03/05 12:01:34;;;;;;;15.52;10.50;;;;;;;;;;4979407;28;20066;-88
2024/03/05 12:04:11;;;;;;;15.77;10.32;;;;;;;;;;4982856;28;20125;-87
2024/03/05 12:06:41;;;;;;;14.77;10.48;;;;;;;;;;4979640;28;20057;-87
2024/03/05 12:09:32;;;;;;;16.15;10.60;;;;;;;;;;4964716;28;20379;-89
2024/03/05 12:12:05;;;;;;;15.32;10.40;;;;;;;;;;4968801;28;20076;-85
2024/03/05 12:14:36;;;;;;;14.43;10.38;;;;;;;;;;4970093;28;20561;-85
2024/03/05 12:17:18;;;;;;;;;;;;;;;;;;;;;
2024/03/05 12:20:07;;;;;;;13.65;8.68;;;;;;;;;;4983866;28;20021;-85
2024/03/05 12:22:40;;;;;;;14.93;10.60;;;;;;;;;;4929335;28;20478;-85
2024/03/05 12:25:32;;;;;;;17.37;10.57;;;;;;;;;;4975892;28;20521;-85
2024/03/05 12:28:04;;;;;;;14.02;10.10;;;;;;;;;;4977510;28;20030;-85
2024/03/05 12:34:30;;;;;;;;;;;;;;;;;;;;;
2024/03/05 12:41:08;;;;;;;14.25;9.75;;;;;;;;;;4890140;28;20033;-86
2024/03/05 12:43:34;;;;;;;12.93;9.57;;;;;;;;;;4981519;28;20035;-85
2024/03/05 12:46:05;;;;;;;14.88;9.82;;;;;;;;;;4972720;28;20034;-86
2024/03/05 12:48:34;;;;;;;14.05;9.80;;;;;;;;;;4990493;28;20390;-86
2024/03/05 12:51:00;;;;;;;13.05;9.73;;;;;;;;;;4976013;28;20503;-86
2024/03/05 12:53:26;;;;;;;16.02;10.63;;;;;;;;;;4978869;28;20042;-85
2024/03/05 12:56:15;;;;;;;12.82;9.38;;;;;;;;;;4985508;28;20029;-87
2024/03/05 12:58:44;;;;;;;13.63;8.82;;;;;;;;;;4973010;28;20501;-86
2024/03/05 13:01:28;;;;;;;11.07;7.95;;;;;;;;;;4988201;28;20030;-86
2024/03/05 13:04:02;;;;;;;13.32;8.77;;;;;;;;;;4970567;28;20031;-86
2024/03/05 13:06:54;;;;;;;12.40;8.48;;;;;;;;;;4984511;28;20367;-87
2024/03/05 13:09:35;;;;;;;12.15;8.57;;;;;;;;;;4967262;28;20445;-86
2024/03/05 13:12:12;;;;;;;11.48;8.00;;;;;;;;;;4958146;28;20088;-86
2024/03/05 13:14:45;;;;;;;11.93;8.38;;;;;;;;;;4989032;28;20037;-89
2024/03/05 13:17:19;;;;;;;11.35;7.68;;;;;;;;;;4972149;28;20508;-86
2024/03/05 13:20:30;;;;;;;13.07;7.80;;;;;;;;;;4978685;28;20026;-87
2024/03/05 13:23:31;;;;;;;12.30;7.13;;;;;;;;;;4989014;28;20551;-86
2024/03/05 13:26:07;;;;;;;9.93;6.65;;;;;;;;;;4966721;28;20038;-86
2024/03/05 13:28:46;;;;;;;;;;;;;;;;;;;;;
2024/03/05 13:31:12;;;;;;;8.18;5.20;;;;;;;;;;4986297;28;20037;-86
2024/03/05 13:34:04;;;;;;;8.13;4.80;;;;;;;;;;4985008;28;20113;-86
2024/03/05 13:36:38;;;;;;;8.35;6.22;;;;;;;;;;4973124;28;20054;-86
2024/03/05 13:39:11;;;;;;;9.00;6.05;;;;;;;;;;4968525;28;20022;-87
2024/03/05 13:41:48;;;;;;;9.23;4.90;;;;;;;;;;4981150;28;20121;-87
2024/03/05 13:44:27;;;;;;;;;;;;;;;;;;;;;
2024/03/05 13:46:57;;;;;;;6.78;3.83;;;;;;;;;;4978840;28;20041;-87
2024/03/05 13:49:30;;;;;;;5.32;3.10;;;;;;;;;;4967214;28;20033;-86
2024/03/05 13:52:05;;;;;;;5.93;3.58;;;;;;;;;;4969994;28;20125;-86
2024/03/05 13:55:05;;;;;;;5.70;3.42;;;;;;;;;;4968659;28;20041;-86
2024/03/05 13:57:52;;;;;;;6.30;3.25;;;;;;;;;;4972128;28;20034;-86
2024/03/05 14:00:46;;;;;;;6.65;3.60;;;;;;;;;;4985588;28;20030;-85
2024/03/05 14:03:40;;;;;;;;;;;;;;;;;;;;;
2024/03/05 14:06:46;;;;;;;5.40;3.05;;;;;;;;;;4986066;28;20034;-86
2024/03/05 14:09:14;;;;;;;5.07;3.00;;;;;;;;;;4969902;28;20030;-86
2024/03/05 14:11:40;;;;;;;4.95;2.83;;;;;;;;;;4988689;28;20037;-86
2024/03/05 14:14:08;;;;;;;5.47;3.05;;;;;;;;;;4985178;28;20405;-86
2024/03/05 14:16:38;;;;;;;5.60;3.13;;;;;;;;;;4985514;28;20061;-86
2024/03/05 14:19:07;;;;;;;5.45;3.15;;;;;;;;;;4977504;28;20130;-86
2024/03/05 14:21:42;;;;;;;5.55;3.42;;;;;;;;;;4940882;28;20030;-87
2024/03/05 14:24:20;;;;;;;4.70;3.08;;;;;;;;;;4970645;28;20189;-88
2024/03/05 14:26:57;;;;;;;4.93;3.30;;;;;;;;;;4976046;28;20382;-88
2024/03/05 14:29:40;;;;;;;5.32;2.92;;;;;;;;;;4962977;28;20062;-86
2024/03/05 14:32:24;;;;;;;5.07;2.92;;;;;;;;;;4971959;28;21967;-86
2024/03/05 14:35:12;;;;;;;4.93;2.95;;;;;;;;;;4959077;28;20034;-85
2024/03/05 14:37:42;;;;;;;6.00;3.70;;;;;;;;;;4979168;28;20592;-87
2024/03/05 14:40:10;;;;;;;6.53;3.92;;;;;;;;;;4975088;28;20080;-86
2024/03/05 14:42:37;;;;;;;7.25;4.10;;;;;;;;;;4963840;28;20497;-87
2024/03/05 14:45:14;;;;;;;6.07;3.65;;;;;;;;;;4977835;28;20027;-86
2024/03/05 14:47:52;;;;;;;6.63;3.58;;;;;;;;;;4963932;28;20745;-87
2024/03/05 14:50:26;;;;;;;5.72;3.65;;;;;;;;;;4958252;28;20031;-88
2024/03/05 14:52:54;;;;;;;5.55;3.55;;;;;;;;;;4973497;28;20093;-88
2024/03/05 14:55:58;;;;;;;6.30;3.50;;;;;;;;;;4962088;28;20727;-87
2024/03/05 14:58:23;;;;;;;4.65;2.70;;;;;;;;;;4967936;28;20030;-87
2024/03/05 15:00:58;;;;;;;5.32;2.80;;;;;;;;;;4965356;28;20390;-87
2024/03/05 15:03:32;;;;;;;5.57;2.50;;;;;;;;;;4967110;28;20026;-87
2024/03/05 15:06:02;;;;;;;6.35;2.83;;;;;;;;;;4953107;28;20117;-87
2024/03/05 15:11:20;;;;;;;4.57;2.28;;;;;;;;;;4949758;28;20050;-88
2024/03/05 15:14:00;;;;;;;3.40;2.17;;;;;;;;;;4965066;28;20781;-88
2024/03/05 15:16:44;;;;;;;;;;;;;;;;;;;;;
2024/03/05 15:19:14;;;;;;;3.28;1.90;;;;;;;;;;4978118;28;20034;-88
2024/03/05 15:22:00;;;;;;;3.75;2.28;;;;;;;;;;4969363;28;20030;-87
2024/03/05 15:25:06;;;;;;;4.00;2.30;;;;;;;;;;4959879;28;20742;-86
2024/03/05 15:28:03;;;;;;;6.38;2.60;;;;;;;;;;4881700;29;20400;-88
2024/03/05 15:30:41;;;;;;;5.40;2.33;;;;;;;;;;4967248;28;20130;-87
2024/03/05 15:33:13;;;;;;;3.97;2.40;;;;;;;;;;4963705;28;20133;-87
2024/03/05 15:35:47;;;;;;;3.85;2.38;;;;;;;;;;4977594;28;20706;-87
2024/03/05 15:38:24;;;;;;;4.38;2.47;;;;;;;;;;4959384;28;20427;-87
2024/03/05 15:40:53;;;;;;;3.75;2.45;;;;;;;;;;4974675;28;20101;-86
2024/03/05 15:43:27;;;;;;;5.90;2.50;;;;;;;;;;4954386;28;20031;-86
2024/03/05 15:45:58;;;;;;;4.25;2.58;;;;;;;;;;4976066;28;20093;-86
2024/03/05 15:48:30;;;;;;;4.35;2.00;;;;;;;;;;4970507;28;20042;-86
2024/03/05 15:50:55;;;;;;;3.95;2.70;;;;;;;;;;4973203;28;20034;-86
2024/03/05 15:53:23;;;;;;;4.25;2.58;;;;;;;;;;4978599;28;20375;-85
2024/03/05 15:56:11;;;;;;;3.08;2.08;;;;;;;;;;4966936;28;20045;-85
2024/03/05 16:01:16;;;;;;;4.00;2.17;;;;;;;;;;4970347;28;20064;-86
2024/03/05 16:03:54;;;;;;;3.63;2.20;;;;;;;;;;4957000;28;20042;-87
2024/03/05 16:06:34;;;;;;;4.53;2.70;;;;;;;;;;4952259;28;20065;-85
2024/03/05 16:09:20;;;;;;;4.82;2.45;;;;;;;;;;4963476;28;20030;-88
2024/03/05 16:11:50;;;;;;;5.28;2.42;;;;;;;;;;4957527;28;20478;-88
2024/03/05 16:14:32;;;;;;;5.18;2.42;;;;;;;;;;4972511;28;20030;-87
2024/03/05 16:17:12;;;;;;;4.00;2.15;;;;;;;;;;4958858;28;20054;-87
2024/03/05 16:19:41;;;;;;;3.63;2.30;;;;;;;;;;4963099;28;20034;-89
2024/03/05 16:22:16;;;;;;;5.03;2.88;;;;;;;;;;4952629;28;20050;-90
2024/03/05 16:25:22;;;;;;;3.92;2.50;;;;;;;;;;4974207;28;20154;-88
2024/03/05 16:28:04;;;;;;;5.00;2.40;;;;;;;;;;4980093;28;20487;-87
2024/03/05 16:30:37;;;;;;;3.83;2.30;;;;;;;;;;4979783;28;20026;-87
2024/03/05 16:36:08;;;;;;;3.85;2.50;;;;;;;;;;4991755;28;20026;-87
2024/03/05 16:38:36;;;;;;;4.03;2.28;;;;;;;;;;4981469;28;20035;-89
2024/03/05 16:41:04;;;;;;;7.38;4.15;;;;;;;;;;4976268;28;20718;-87
2024/03/05 16:43:38;;;;;;;5.32;3.00;;;;;;;;;;4974569;28;20434;-87
2024/03/05 16:46:08;;;;;;;8.05;4.10;;;;;;;;;;4979902;28;20031;-88
2024/03/05 16:48:48;;;;;;;7.40;4.20;;;;;;;;;;4979157;28;20367;-88
2024/03/05 16:51:21;;;;;;;6.88;3.75;;;;;;;;;;4963256;28;20037;-88
2024/03/05 16:54:03;;;;;;;6.47;3.83;;;;;;;;;;4988526;28;20042;-88
2024/03/05 16:56:48;;;;;;;6.18;3.85;;;;;;;;;;4978305;28;20389;-88
2024/03/05 16:59:14;;;;;;;7.95;3.08;;;;;;;;;;4964607;28;20425;-88
2024/03/05 17:01:56;;;;;;;5.05;2.92;;;;;;;;;;4989414;28;20045;-88
2024/03/05 17:04:26;;;;;;;4.70;3.05;;;;;;;;;;4958860;28;20447;-88
2024/03/05 17:07:09;;;;;;;4.47;2.65;;;;;;;;;;4972103;28;20097;-88
2024/03/05 17:09:38;;;;;;;3.55;2.22;;;;;;;;;;4973622;28;20042;-88
2024/03/05 17:12:24;;;;;;;5.13;2.67;;;;;;;;;;4978067;28;20120;-88
2024/03/05 17:14:55;;;;;;;4.57;2.90;;;;;;;;;;4984579;28;20033;-88
2024/03/05 17:17:20;;;;;;;4.65;2.50;;;;;;;;;;4966151;28;20053;-88
2024/03/05 17:19:47;;;;;;;4.18;2.70;;;;;;;;;;4969871;28;20065;-88
2024/03/05 17:22:19;;;;;;;4.32;2.80;;;;;;;;;;4967729;28;20041;-88
2024/03/05 17:24:46;;;;;;;4.72;2.78;;;;;;;;;;4980600;28;20437;-88
2024/03/05 17:27:15;;;;;;;4.35;2.63;;;;;;;;;;4988461;28;20647;-88
2024/03/05 17:29:50;;;;;;;5.63;2.90;;;;;;;;;;4978292;28;20037;-88
2024/03/05 17:32:15;;;;;;;4.65;2.90;;;;;;;;;;4983055;28;20033;-88
2024/03/05 17:34:41;;;;;;;4.75;2.75;;;;;;;;;;4964084;28;20475;-88
2024/03/05 17:37:08;;;;;;;4.47;2.97;;;;;;;;;;4969423;28;20027;-86
2024/03/05 17:39:50;;;;;;;4.80;3.08;;;;;;;;;;4977964;28;20111;-86
2024/03/05 17:42:29;;;;;;;;;;;;;;;;;;;;;
2024/03/05 17:45:04;;;;;;;5.20;2.95;;;;;;;;;;4975725;28;20039;-86
2024/03/05 17:48:00;;;;;;;5.60;3.25;;;;;;;;;;4966223;28;20054;-86
2024/03/05 17:50:41;;;;;;;6.15;3.00;;;;;;;;;;4961408;28;20118;-86
2024/03/05 17:53:15;;;;;;;4.60;3.05;;;;;;;;;;4971733;28;20062;-85
2024/03/05 17:55:54;;;;;;;;;;;;;;;;;;;;;
2024/03/05 17:58:33;;;;;;;5.70;3.33;;;;;;;;;;4979543;28;20033;-86
2024/03/05 18:01:14;;;;;;;4.70;3.08;;;;;;;;;;4966645;28;20390;-88
2024/03/05 18:06:50;;;;;;;6.25;3.63;;;;;;;;;;4971200;28;20103;-88
2024/03/05 18:09:24;;;;;;;5.88;3.33;;;;;;;;;;4969642;28;20027;-88
2024/03/05 18:11:53;;;;;;;7.95;3.95;;;;;;;;;;4969187;28;20192;-88
2024/03/05 18:14:21;;;;;;;6.90;3.70;;;;;;;;;;4971670;28;20598;-88
2024/03/05 18:16:53;;;;;;;5.55;3.70;;;;;;;;;;4986247;28;20509;-88
2024/03/05 18:19:21;;;;;;;6.07;3.90;;;;;;;;;;4993842;28;20462;-90
2024/03/05 18:21:52;;;;;;;6.70;3.72;;;;;;;;;;4993512;28;20030;-88
2024/03/05 18:24:18;;;;;;;6.35;3.88;;;;;;;;;;4981401;28;20030;-88
2024/03/05 18:26:48;;;;;;;7.40;4.10;;;;;;;;;;4986889;28;20049;-88
2024/03/05 18:29:27;;;;;;;;;;;;;;;;;;;;;
2024/03/05 18:31:59;;;;;;;5.50;3.88;;;;;;;;;;4988345;28;20034;-88
2024/03/05 18:34:28;;;;;;;7.80;3.80;;;;;;;;;;4986917;28;20600;-90
2024/03/05 18:36:55;;;;;;;6.10;3.83;;;;;;;;;;4958441;28;20030;-88
2024/03/05 18:39:25;;;;;;;6.90;4.18;;;;;;;;;;4980475;28;20022;-87
2024/03/05 18:41:51;;;;;;;7.15;4.10;;;;;;;;;;4970904;28;20109;-89
2024/03/05 18:44:20;;;;;;;5.40;3.95;;;;;;;;;;4970939;28;20026;-88
2024/03/05 18:46:58;;;;;;;;;;;;;;;;;;;;;
2024/03/05 18:49:24;;;;;;;6.15;4.22;;;;;;;;;;4988419;28;20389;-87
2024/03/05 18:52:03;;;;;;;;;;;;;;;;;;;;;
2024/03/05 18:54:32;;;;;;;6.68;4.07;;;;;;;;;;4983796;28;20024;-88
2024/03/05 18:56:57;;;;;;;5.80;4.05;;;;;;;;;;4989239;28;20029;-88
2024/03/05 18:59:27;;;;;;;6.10;4.40;;;;;;;;;;4970512;28;20315;-88
2024/03/05 19:05:47;;;;;;;7.57;4.30;;;;;;;;;;4895171;29;20040;-88
2024/03/05 19:08:18;;;;;;;6.95;4.70;;;;;;;;;;4962609;28;20057;-90
2024/03/05 19:10:45;;;;;;;8.30;5.28;;;;;;;;;;4966738;28;20056;-88
2024/03/05 19:13:41;;;;;;;8.35;5.13;;;;;;;;;;4955715;28;20374;-88
2024/03/05 19:16:10;;;;;;;8.90;5.05;;;;;;;;;;4977865;28;20030;-88
2024/03/05 19:18:41;;;;;;;7.18;4.80;;;;;;;;;;4977502;28;20106;-88
2024/03/05 19:21:35;;;;;;;7.25;4.97;;;;;;;;;;4974878;28;20033;-86
2024/03/05 19:28:00;;;;;;;7.35;5.10;;;;;;;;;;4974692;28;20478;-88
2024/03/05 19:30:49;;;;;;;7.45;5.05;;;;;;;;;;4964268;28;20405;-87
2024/03/05 19:33:19;;;;;;;7.35;4.65;;;;;;;;;;4981908;28;20030;-87
2024/03/05 19:36:18;;;;;;;;;;;;;;;;;;;;;
2024/03/05 19:39:12;;;;;;;7.40;5.38;;;;;;;;;;4978811;28;20038;-87
2024/03/05 19:42:10;;;;;;;7.95;5.53;;;;;;;;;;4976096;28;20031;-87
2024/03/05 19:48:18;;;;;;;8.60;6.18;;;;;;;;;;4982484;28;20042;-87
2024/03/05 19:51:09;;;;;;;8.05;5.60;;;;;;;;;;4959447;28;20038;-88
2024/03/05 19:53:50;;;;;;;8.60;6.07;;;;;;;;;;4981591;28;20042;-88
2024/03/05 19:56:43;;;;;;;8.35;6.10;;;;;;;;;;4965507;28;20099;-87
2024/03/05 19:59:22;;;;;;;7.20;5.60;;;;;;;;;;4980167;28;20049;-87
2024/03/05 20:02:00;;;;;;;9.35;6.38;;;;;;;;;;4960790;28;20550;-88
2024/03/05 20:04:36;;;;;;;10.05;6.93;;;;;;;;;;4979870;28;20393;-88
2024/03/05 20:07:18;;;;;;;;;;;;;;;;;;;;;
2024/03/05 20:10:00;;;;;;;10.57;7.32;;;;;;;;;;4975393;28;20027;-88
2024/03/05 20:12:30;;;;;;;12.00;7.33;;;;;;;;;;4976503;28;20035;-87
2024/03/05 20:15:08;;;;;;;11.73;7.75;;;;;;;;;;4973789;28;20034;-87
2024/03/05 20:17:36;;;;;;;11.35;7.85;;;;;;;;;;4980037;28;20031;-88
2024/03/05 20:20:12;;;;;;;13.95;8.02;;;;;;;;;;4975618;28;20027;-87
2024/03/05 20:22:50;;;;;;;14.40;8.75;;;;;;;;;;4959336;28;20034;-87
2024/03/05 20:25:24;;;;;;;15.07;9.77;;;;;;;;;;4956854;28;20034;-87
2024/03/05 20:27:53;;;;;;;14.00;9.57;;;;;;;;;;4965559;28;20101;-87
2024/03/05 20:30:22;;;;;;;15.80;10.18;;;;;;;;;;4970264;28;20453;-89
2024/03/05 20:32:49;;;;;;;17.02;10.05;;;;;;;;;;4959675;28;20155;-88
2024/03/05 20:35:30;;;;;;;14.70;10.02;;;;;;;;;;4952920;28;20018;-87
2024/03/05 20:38:06;;;;;;;15.25;10.02;;;;;;;;;;4959384;28;20030;-87
2024/03/05 20:43:25;;;;;;;18.38;11.60;;;;;;;;;;4977543;28;20038;-89
2024/03/05 20:46:30;;;;;;;17.58;11.63;;;;;;;;;;4976421;28;20027;-89
2024/03/05 20:49:00;;;;;;;17.83;11.93;;;;;;;;;;4973867;28;20042;-87
2024/03/05 20:51:35;;;;;;;14.93;10.57;;;;;;;;;;4967365;28;20451;-89
2024/03/05 20:54:02;;;;;;;18.17;10.95;;;;;;;;;;4963263;28;20497;-87
2024/03/05 20:56:50;;;;;;;14.52;10.68;;;;;;;;;;4959376;28;20038;-89
2024/03/05 20:59:26;;;;;;;14.52;10.10;;;;;;;;;;4974469;28;20023;-88
2024/03/05 21:01:58;;;;;;;14.98;10.25;;;;;;;;;;4956891;28;20520;-88
2024/03/05 21:04:47;;;;;;;15.85;10.65;;;;;;;;;;4980351;28;20088;-87
2024/03/05 21:07:15;;;;;;;16.42;10.65;;;;;;;;;;4961120;28;20042;-88
2024/03/05 21:10:00;;;;;;;14.43;9.68;;;;;;;;;;4961645;28;20034;-89
2024/03/05 21:12:58;;;;;;;13.55;9.57;;;;;;;;;;4976863;28;20030;-89
2024/03/05 21:15:28;;;;;;;13.07;8.95;;;;;;;;;;4976505;28;20422;-90
2024/03/05 21:18:20;;;;;;;15.05;9.60;;;;;;;;;;4958349;28;20161;-89
2024/03/05 21:20:46;;;;;;;13.50;9.70;;;;;;;;;;4975614;28;20057;-87
2024/03/05 21:23:15;;;;;;;15.07;10.00;;;;;;;;;;4972556;28;20034;-87
2024/03/05 21:26:07;;;;;;;13.75;9.95;;;;;;;;;;4962547;28;20033;-87
2024/03/05 21:28:33;;;;;;;13.65;9.95;;;;;;;;;;4971739;28;20142;-87
2024/03/05 21:31:01;;;;;;;16.42;10.52;;;;;;;;;;4975197;28;20162;-87
2024/03/05 21:33:30;;;;;;;13.93;9.20;;;;;;;;;;4971185;28;20035;-87
2024/03/05 21:35:59;;;;;;;14.32;10.25;;;;;;;;;;4982129;28;20058;-88
2024/03/05 21:38:27;;;;;;;13.73;10.02;;;;;;;;;;4968592;28;20029;-87
2024/03/05 21:40:59;;;;;;;14.32;9.85;;;;;;;;;;4968053;28;20039;-88
2024/03/05 21:43:27;;;;;;;15.02;9.73;;;;;;;;;;4957292;28;20038;-87
2024/03/05 21:46:00;;;;;;;13.38;9.38;;;;;;;;;;4985737;28;20037;-88
2024/03/05 21:48:26;;;;;;;14.13;10.05;;;;;;;;;;4983106;28;20030;-88
2024/03/05 21:51:07;;;;;;;14.75;10.23;;;;;;;;;;4981439;28;20100;-88
2024/03/05 21:53:45;;;;;;;14.20;10.27;;;;;;;;;;4974252;28;20034;-88
2024/03/05 21:56:10;;;;;;;15.35;10.27;;;;;;;;;;4984822;28;20031;-88
2024/03/05 21:58:45;;;;;;;14.20;10.10;;;;;;;;;;4971327;28;20045;-88
2024/03/05 22:01:20;;;;;;;15.18;9.93;;;;;;;;;;4970574;28;20077;-88
2024/03/05 22:04:00;;;;;;;13.60;10.18;;;;;;;;;;4971210;28;20036;-87
2024/03/05 22:06:26;;;;;;;15.02;10.50;;;;;;;;;;4970241;28;20497;-87
2024/03/05 22:08:54;;;;;;;14.48;10.73;;;;;;;;;;4986223;28;20061;-88
2024/03/05 22:11:24;;;;;;;14.27;10.77;;;;;;;;;;4991124;28;20029;-88
2024/03/05 22:13:49;;;;;;;13.93;10.05;;;;;;;;;;4990469;28;20473;-88
2024/03/05 22:16:15;;;;;;;14.02;10.40;;;;;;;;;;4991806;28;20022;-88
2024/03/05 22:18:41;;;;;;;14.68;10.73;;;;;;;;;;4973639;28;20026;-87
2024/03/05 22:21:12;;;;;;;15.32;10.70;;;;;;;;;;4989673;28;20030;-87
2024/03/05 22:23:38;;;;;;;14.73;11.00;;;;;;;;;;4970049;28;20030;-88
2024/03/05 22:26:04;;;;;;;19.23;11.30;;;;;;;;;;4989259;28;20110;-88
2024/03/05 22:28:40;;;;;;;15.32;10.73;;;;;;;;;;4972891;28;20035;-88
2024/03/05 22:31:24;;;;;;;17.65;12.13;;;;;;;;;;4987188;28;20058;-88
2024/03/05 22:33:50;;;;;;;;;;;;;;;;;;4988007;28;20030;-87
2024/03/05 22:36:29;;;;;;;17.55;11.23;;;;;;;;;;4977783;28;19914;-88
2024/03/05 22:38:57;;;;;;;17.60;12.73;;;;;;;;;;4977083;28;20026;-87
2024/03/05 22:41:22;;;;;;;22.20;13.57;;;;;;;;;;4977148;28;20026;-87
2024/03/05 22:43:54;;;;;;;19.38;13.82;;;;;;;;;;4981014;28;20027;-88
2024/03/05 22:46:24;;;;;;;23.55;14.95;;;;;;;;;;4977626;28;20065;-88
2024/03/05 22:49:01;;;;;;;21.13;14.00;;;;;;;;;;4991630;28;20026;-88
2024/03/05 22:51:26;;;;;;;20.77;13.95;;;;;;;;;;4989583;28;20172;-87
2024/03/05 22:54:21;;;;;;;20.08;13.73;;;;;;;;;;4975522;28;20113;-88
2024/03/05 22:57:07;;;;;;;;;;;;;;;;;;;;;
2024/03/05 22:59:38;;;;;;;20.05;14.75;;;;;;;;;;4990834;28;20027;-88
2024/03/05 23:02:04;;;;;;;22.95;14.65;;;;;;;;;;4978316;28;20462;-87
2024/03/05 23:04:31;;;;;;;22.88;14.98;;;;;;;;;;4984848;28;20116;-88
2024/03/05 23:07:05;;;;;;;21.52;14.63;;;;;;;;;;4980909;28;20038;-87
2024/03/05 23:09:34;;;;;;;19.60;13.82;;;;;;;;;;4976501;28;20026;-88
2024/03/05 23:12:03;;;;;;;21.95;13.95;;;;;;;;;;4966717;28;20118;-88
2024/03/05 23:14:37;;;;;;;22.40;15.00;;;;;;;;;;4973209;28;20049;-88
2024/03/05 23:17:20;;;;;;;23.73;14.32;;;;;;;;;;4987079;28;20077;-88
2024/03/05 23:19:53;;;;;;;22.30;15.00;;;;;;;;;;4987560;28;20044;-88
2024/03/05 23:22:22;;;;;;;23.67;14.52;;;;;;;;;;4992495;28;20038;-88
2024/03/05 23:24:47;;;;;;;19.65;13.10;;;;;;;;;;4989842;28;20038;-88
2024/03/05 23:27:13;;;;;;;22.73;13.43;;;;;;;;;;4990103;28;20088;-89
2024/03/05 23:29:40;;;;;;;19.45;13.93;;;;;;;;;;4986490;28;20036;-88
2024/03/05 23:32:09;;;;;;;18.42;13.30;;;;;;;;;;4987283;28;20542;-88
2024/03/05 23:34:39;;;;;;;20.58;13.13;;;;;;;;;;4975951;28;20026;-88
2024/03/05 23:37:09;;;;;;;20.55;13.65;;;;;;;;;;4987876;28;20030;-88
2024/03/05 23:39:38;;;;;;;21.42;13.57;;;;;;;;;;4971292;28;20022;-89
2024/03/05 23:42:04;;;;;;;18.70;12.88;;;;;;;;;;4982775;28;20046;-88
2024/03/05 23:44:33;;;;;;;19.30;13.88;;;;;;;;;;4972251;28;20482;-89
2024/03/05 23:46:58;;;;;;;20.17;12.98;;;;;;;;;;4987783;28;20467;-89
2024/03/05 23:49:34;;;;;;;19.73;13.18;;;;;;;;;;4976108;28;20041;-88
2024/03/05 23:52:00;;;;;;;18.70;13.30;;;;;;;;;;4973937;28;20125;-88
2024/03/05 23:54:25;;;;;;;19.30;13.40;;;;;;;;;;4976658;28;20113;-88
2024/03/05 23:56:53;;;;;;;19.48;13.27;;;;;;;;;;4976410;28;20037;-88
2024/03/05 23:59:22;;;;;;;18.27;12.60;;;;;;;;;;4978399;28;20024;-87
